Bridgeport, Ohio
Current Conditions -  °F | °C
As of 1:53 PM on Sunday 21 Dec 2014 (Local Time) from KHLG Reporting Station
Overcast Overcast  
Wind Chill: 31°   Ceiling: 2600
Heat Index: 35°   Visibility: 10mi
Dew Point: 22°   Wind: 5mph
Humidity: 59%   Direction: NA
Pressure: 30.24"   Gusts: NA
Location:  40.07°N, 80.74°W
Report Text: KHLG 211853Z VRB04KT 10SM OVC026 02/M06 A3024 RMK AO2 SLP255 T00171056
Loading
Personal Weather Stations






























Interactive Weather Map New forecast layout! Learn more

10-Day Weather Forecast

Advertisements
Track Severe Weather on mobile